Time;durP1;ratioP1;P1;durP2;ratioP2;P2;SDS_P1;SDS_P2;PMS_P1;PMS_P2;Temp;Humidity;BMP_temperature;BMP_pressure;BME280_temperature;BME280_humidity;BME280_pressure;Samples;Min_cycle;Max_cycle;Signal;HPM_P1;HPM_P2
2023/08/15 00:01:06;;;;;;;17.10;6.97;;;23.90;79.30;;;;;;5028516;28;20485;-79
2023/08/15 00:03:34;;;;;;;11.97;6.83;;;23.90;79.30;;;;;;5029885;28;20549;-79
2023/08/15 00:06:03;;;;;;;13.20;6.97;;;23.90;79.30;;;;;;5022929;28;20489;-79
2023/08/15 00:08:31;;;;;;;16.33;6.47;;;23.90;79.30;;;;;;5025422;28;21138;-79
2023/08/15 00:11:00;;;;;;;15.87;7.57;;;23.90;79.30;;;;;;5025775;28;20452;-79
2023/08/15 00:13:28;;;;;;;10.43;6.70;;;23.90;79.30;;;;;;5026303;28;20438;-79
2023/08/15 00:15:56;;;;;;;16.17;6.40;;;23.90;79.30;;;;;;5025540;28;20468;-80
2023/08/15 00:18:24;;;;;;;11.53;6.70;;;23.90;79.40;;;;;;5028330;28;20463;-80
2023/08/15 00:20:52;;;;;;;15.60;7.10;;;23.90;79.30;;;;;;5025373;28;20523;-80
2023/08/15 00:23:20;;;;;;;11.90;6.80;;;23.80;79.40;;;;;;5028392;28;20479;-80
2023/08/15 00:25:48;;;;;;;14.03;6.60;;;23.80;79.40;;;;;;5031779;28;20463;-80
2023/08/15 00:28:17;;;;;;;12.30;6.57;;;23.80;79.40;;;;;;5031257;28;20466;-79
2023/08/15 00:30:45;;;;;;;11.63;6.10;;;23.80;79.40;;;;;;5020848;28;20471;-80
2023/08/15 00:33:13;;;;;;;11.10;7.40;;;23.80;79.40;;;;;;5027403;28;21100;-79
2023/08/15 00:35:43;;;;;;;18.37;6.87;;;23.70;79.40;;;;;;5030131;28;20448;-79
2023/08/15 00:38:12;;;;;;;9.33;6.17;;;23.70;79.50;;;;;;5027278;28;20554;-79
2023/08/15 00:40:40;;;;;;;16.33;6.50;;;23.70;79.40;;;;;;5031367;28;20479;-80
2023/08/15 00:43:10;;;;;;;10.77;6.10;;;23.60;79.40;;;;;;5028653;28;20484;-79
2023/08/15 00:45:42;;;;;;;17.23;6.60;;;23.60;79.60;;;;;;5022886;28;20821;-79
2023/08/15 00:48:11;;;;;;;9.83;6.20;;;23.50;79.60;;;;;;5028157;28;20543;-81
2023/08/15 00:50:43;;;;;;;9.57;6.20;;;23.50;79.80;;;;;;5056715;28;20509;-80
2023/08/15 00:53:11;;;;;;;12.80;6.83;;;23.50;79.90;;;;;;5030847;28;20822;-80
2023/08/15 00:55:40;;;;;;;12.60;6.40;;;23.40;79.90;;;;;;5032640;28;20468;-80
2023/08/15 00:58:08;;;;;;;16.03;6.90;;;23.40;79.90;;;;;;5027551;28;20547;-79
2023/08/15 01:00:36;;;;;;;11.10;6.77;;;23.40;79.90;;;;;;5025804;28;20479;-79
2023/08/15 01:03:06;;;;;;;15.47;6.73;;;23.40;80.00;;;;;;5030986;28;20479;-80
2023/08/15 01:05:35;;;;;;;13.20;6.63;;;23.40;80.00;;;;;;5050222;28;20794;-79
2023/08/15 01:08:04;;;;;;;12.10;6.80;;;23.40;79.90;;;;;;5027090;28;20463;-79
2023/08/15 01:10:32;;;;;;;13.80;6.83;;;23.40;79.90;;;;;;5027893;28;20464;-79
2023/08/15 01:13:07;;;;;;;12.83;7.13;;;23.40;80.00;;;;;;5020206;28;20475;-80
2023/08/15 01:15:41;;;;;;;12.33;6.73;;;23.40;80.10;;;;;;5055462;28;20460;-77
2023/08/15 01:18:16;;;;;;;20.70;8.17;;;23.40;80.00;;;;;;5019605;28;20487;-78
2023/08/15 01:20:46;;;;;;;15.40;7.73;;;23.40;80.00;;;;;;5027217;28;20573;-77
2023/08/15 01:23:16;;;;;;;13.17;7.67;;;23.40;80.10;;;;;;5022316;28;20548;-80
2023/08/15 01:25:46;;;;;;;14.73;7.27;;;23.40;80.00;;;;;;5030080;28;20456;-80
2023/08/15 01:28:15;;;;;;;10.60;6.53;;;23.40;80.00;;;;;;5025414;28;20464;-80
2023/08/15 01:30:53;;;;;;;16.93;6.63;;;23.40;79.90;;;;;;5026245;28;20565;-80
2023/08/15 01:33:27;;;;;;;12.67;7.30;;;23.40;79.90;;;;;;5030060;28;20477;-80
2023/08/15 01:36:02;;;;;;;10.90;6.80;;;23.30;79.90;;;;;;5027017;28;20828;-79
2023/08/15 01:38:35;;;;;;;10.30;6.73;;;23.30;79.80;;;;;;5026281;28;20546;-79
2023/08/15 01:41:08;;;;;;;14.47;6.80;;;23.30;79.80;;;;;;5051521;28;20468;-80
2023/08/15 01:43:37;;;;;;;10.00;6.93;;;23.30;79.80;;;;;;5055074;28;20991;-79
2023/08/15 01:46:09;;;;;;;16.00;7.17;;;23.30;79.80;;;;;;5029575;28;20474;-80
2023/08/15 01:48:40;;;;;;;13.20;6.67;;;23.30;79.80;;;;;;5025496;28;20452;-80
2023/08/15 01:51:08;;;;;;;11.70;6.77;;;23.20;79.80;;;;;;5025295;28;20555;-81
2023/08/15 01:53:38;;;;;;;9.50;6.73;;;23.20;79.70;;;;;;5028428;28;20450;-79
2023/08/15 01:56:08;;;;;;;12.90;7.30;;;23.20;79.70;;;;;;5058624;28;20452;-80
2023/08/15 01:58:36;;;;;;;12.83;7.50;;;23.20;79.80;;;;;;5033476;28;20460;-80
2023/08/15 02:01:05;;;;;;;11.10;7.40;;;23.20;79.80;;;;;;5028793;28;21250;-80
2023/08/15 02:03:34;;;;;;;14.37;7.63;;;23.10;79.80;;;;;;5033435;28;20482;-79
2023/08/15 02:06:03;;;;;;;13.97;7.77;;;23.10;79.90;;;;;;5024143;28;20456;-79
2023/08/15 02:08:31;;;;;;;10.57;6.93;;;23.10;79.90;;;;;;5031561;28;21200;-80
2023/08/15 02:11:02;;;;;;;12.67;6.97;;;23.00;80.00;;;;;;5024611;28;20464;-80
2023/08/15 02:13:33;;;;;;;12.23;7.77;;;23.00;80.00;;;;;;5047430;28;20984;-79
2023/08/15 02:16:01;;;;;;;13.23;7.70;;;23.00;80.10;;;;;;5051178;28;20857;-79
2023/08/15 02:18:30;;;;;;;13.73;7.40;;;23.00;80.10;;;;;;5026943;28;20464;-79
2023/08/15 02:20:58;;;;;;;10.37;6.60;;;23.00;80.10;;;;;;5026428;28;20531;-80
2023/08/15 02:23:27;;;;;;;11.70;6.80;;;22.90;80.10;;;;;;5026176;28;20578;-79
2023/08/15 02:25:55;;;;;;;15.77;6.80;;;22.90;80.10;;;;;;5026300;28;21196;-79
2023/08/15 02:28:23;;;;;;;19.07;7.63;;;22.90;80.10;;;;;;5032659;28;20456;-79
2023/08/15 02:30:54;;;;;;;12.60;7.40;;;22.90;80.10;;;;;;5010649;28;21029;-79
2023/08/15 02:33:23;;;;;;;10.27;6.80;;;22.90;80.10;;;;;;5004122;28;20461;-78
2023/08/15 02:35:52;;;;;;;14.90;7.00;;;22.90;80.00;;;;;;4998391;28;20540;-79
2023/08/15 02:38:20;;;;;;;16.07;6.70;;;22.90;80.00;;;;;;5007780;28;20459;-80
2023/08/15 02:40:49;;;;;;;10.83;7.00;;;22.90;80.00;;;;;;5007787;28;20499;-79
2023/08/15 02:43:18;;;;;;;12.23;7.37;;;22.90;80.00;;;;;;5002307;28;20457;-79
2023/08/15 02:45:46;;;;;;;12.23;6.83;;;22.90;79.90;;;;;;5007504;28;20460;-80
2023/08/15 02:48:15;;;;;;;12.23;6.60;;;22.90;79.90;;;;;;5014977;28;20453;-80
2023/08/15 02:50:43;;;;;;;10.90;7.00;;;22.90;79.90;;;;;;5007777;28;21115;-81
2023/08/15 02:53:11;;;;;;;12.47;6.70;;;22.80;79.90;;;;;;5004076;28;20460;-80
2023/08/15 02:55:39;;;;;;;10.93;6.60;;;22.80;79.90;;;;;;5003458;28;20457;-79
2023/08/15 02:58:07;;;;;;;15.20;8.50;;;22.80;79.90;;;;;;5004975;28;20575;-79
2023/08/15 03:00:35;;;;;;;16.23;9.20;;;22.80;80.00;;;;;;5002706;28;20472;-79
2023/08/15 03:03:05;;;;;;;11.70;8.37;;;22.80;80.00;;;;;;5003513;28;20460;-79
2023/08/15 03:05:37;;;;;;;20.13;9.90;;;22.70;80.20;;;;;;5000170;28;20485;-78
2023/08/15 03:08:06;;;;;;;29.90;12.10;;;22.70;80.40;;;;;;5006344;28;20529;-78
2023/08/15 03:10:36;;;;;;;26.53;11.90;;;22.70;80.50;;;;;;5001537;28;20553;-77
2023/08/15 03:13:04;;;;;;;35.67;14.97;;;22.70;80.60;;;;;;5004843;28;21009;-79
2023/08/15 03:15:33;;;;;;;34.13;15.30;;;22.60;80.80;;;;;;5001541;28;20472;-79
2023/08/15 03:18:01;;;;;;;38.33;14.90;;;22.60;80.90;;;;;;5023160;28;20538;-79
2023/08/15 03:20:30;;;;;;;26.80;14.03;;;22.60;81.00;;;;;;5006596;28;20471;-78
2023/08/15 03:23:00;;;;;;;26.97;13.30;;;22.60;81.10;;;;;;5007195;28;21038;-79
2023/08/15 03:25:28;;;;;;;24.70;12.90;;;22.60;81.30;;;;;;5005930;28;20554;-79
2023/08/15 03:27:56;;;;;;;22.23;13.60;;;22.60;81.40;;;;;;5006863;28;20460;-80
2023/08/15 03:30:25;;;;;;;29.53;14.13;;;22.70;81.40;;;;;;5007250;28;20460;-80
2023/08/15 03:32:53;;;;;;;30.33;14.40;;;22.70;81.50;;;;;;5000161;28;20457;-79
2023/08/15 03:35:22;;;;;;;38.07;13.40;;;22.70;81.40;;;;;;4999960;28;20944;-80
2023/08/15 03:37:50;;;;;;;22.70;13.30;;;22.70;81.40;;;;;;5013199;28;22752;-80
2023/08/15 03:40:19;;;;;;;26.93;12.93;;;22.70;81.40;;;;;;5004842;28;20472;-80
2023/08/15 03:42:47;;;;;;;19.83;12.83;;;22.70;81.40;;;;;;5011243;28;20486;-80
2023/08/15 03:45:15;;;;;;;19.83;10.97;;;22.70;81.50;;;;;;5009985;28;20567;-80
2023/08/15 03:47:43;;;;;;;19.47;10.70;;;22.60;81.60;;;;;;5009390;28;20575;-80
2023/08/15 03:50:11;;;;;;;16.37;9.73;;;22.70;81.70;;;;;;5012943;28;20552;-79
2023/08/15 03:52:39;;;;;;;35.53;11.43;;;22.70;81.70;;;;;;5008875;28;20464;-79
2023/08/15 03:55:08;;;;;;;45.07;14.10;;;22.70;81.70;;;;;;5007585;28;20487;-79
2023/08/15 03:57:39;;;;;;;29.03;14.50;;;22.60;81.80;;;;;;5002933;28;20457;-80
2023/08/15 04:00:09;;;;;;;32.43;15.20;;;22.60;81.80;;;;;;5001577;28;20563;-78
2023/08/15 04:02:41;;;;;;;20.60;13.03;;;22.50;82.00;;;;;;5004818;28;20453;-79
2023/08/15 04:05:11;;;;;;;21.27;11.67;;;22.50;82.10;;;;;;5005563;28;20468;-79
2023/08/15 04:07:39;;;;;;;15.90;11.83;;;22.50;82.20;;;;;;5013431;28;20452;-80
2023/08/15 04:10:08;;;;;;;16.80;11.30;;;22.50;82.40;;;;;;5004430;28;20465;-80
2023/08/15 04:12:36;;;;;;;16.03;10.63;;;22.50;82.40;;;;;;5012186;28;21159;-80
2023/08/15 04:15:06;;;;;;;14.10;10.30;;;22.50;82.50;;;;;;5008205;28;20448;-80
2023/08/15 04:17:34;;;;;;;13.10;9.60;;;22.60;82.50;;;;;;5011163;28;20457;-80
2023/08/15 04:20:04;;;;;;;18.40;10.43;;;22.60;82.50;;;;;;5010098;28;20464;-79
2023/08/15 04:22:32;;;;;;;17.60;10.70;;;22.60;82.50;;;;;;5009982;28;20460;-80
2023/08/15 04:25:00;;;;;;;14.20;9.50;;;22.60;82.40;;;;;;5008849;28;20550;-79
2023/08/15 04:27:28;;;;;;;15.57;8.40;;;22.60;82.40;;;;;;5003309;28;20480;-79
2023/08/15 04:29:57;;;;;;;12.23;8.20;;;22.60;82.50;;;;;;5003375;28;20448;-79
2023/08/15 04:32:26;;;;;;;17.60;9.63;;;22.60;82.60;;;;;;5004847;28;20487;-79
2023/08/15 04:34:54;;;;;;;13.97;9.83;;;22.60;82.70;;;;;;5008072;28;20502;-80
2023/08/15 04:37:22;;;;;;;13.50;10.07;;;22.60;82.80;;;;;;5006729;28;20449;-79
2023/08/15 04:39:51;;;;;;;13.20;9.50;;;22.60;82.80;;;;;;5017879;28;20465;-78
2023/08/15 04:42:20;;;;;;;14.10;10.17;;;22.70;82.90;;;;;;5004782;28;20525;-79
2023/08/15 04:44:48;;;;;;;13.40;10.70;;;22.60;82.90;;;;;;5009748;28;20647;-78
2023/08/15 04:47:18;;;;;;;17.00;10.57;;;22.60;83.00;;;;;;5006082;28;20457;-79
2023/08/15 04:49:47;;;;;;;14.80;10.93;;;22.70;83.20;;;;;;5004058;28;20514;-79
2023/08/15 04:52:17;;;;;;;15.57;10.20;;;22.70;83.20;;;;;;4998441;28;20660;-80
2023/08/15 04:54:45;;;;;;;17.20;9.87;;;22.70;83.20;;;;;;5004559;28;20482;-79
2023/08/15 04:57:13;;;;;;;15.57;11.20;;;22.70;83.20;;;;;;5000539;28;20468;-81
2023/08/15 04:59:41;;;;;;;12.60;9.23;;;22.70;83.20;;;;;;5001623;28;20789;-80
2023/08/15 05:02:09;;;;;;;13.10;10.07;;;22.70;83.20;;;;;;5001590;28;20489;-80
2023/08/15 05:04:38;;;;;;;15.53;9.73;;;22.70;83.30;;;;;;5000761;28;20545;-80
2023/08/15 05:07:07;;;;;;;11.50;9.13;;;22.70;83.40;;;;;;5006122;28;20831;-80
2023/08/15 05:09:35;;;;;;;10.43;7.80;;;22.70;83.50;;;;;;5006950;28;20950;-81
2023/08/15 05:12:05;;;;;;;14.30;8.80;;;22.80;83.50;;;;;;5007408;28;20820;-81
2023/08/15 05:14:33;;;;;;;12.37;8.53;;;22.80;83.40;;;;;;4998327;28;20510;-80
2023/08/15 05:17:01;;;;;;;11.03;8.77;;;22.80;83.50;;;;;;5003552;28;20456;-80
2023/08/15 05:19:29;;;;;;;12.73;8.60;;;22.80;83.50;;;;;;5005043;28;20464;-79
2023/08/15 05:21:57;;;;;;;9.60;8.17;;;22.90;83.50;;;;;;5012919;28;20567;-80
2023/08/15 05:24:27;;;;;;;10.87;8.60;;;22.90;83.50;;;;;;5008845;28;20479;-80
2023/08/15 05:26:55;;;;;;;11.47;8.50;;;22.90;83.50;;;;;;5011286;28;20933;-81
2023/08/15 05:29:24;;;;;;;12.17;8.97;;;22.90;83.50;;;;;;5007684;28;20931;-80
2023/08/15 05:31:52;;;;;;;10.93;8.93;;;22.90;83.60;;;;;;5010059;28;20871;-79
2023/08/15 05:34:20;;;;;;;15.13;8.87;;;22.90;83.60;;;;;;5006080;28;20460;-80
2023/08/15 05:36:48;;;;;;;11.23;9.10;;;22.90;83.70;;;;;;5007560;28;20459;-81
2023/08/15 05:39:16;;;;;;;13.70;8.40;;;23.00;83.70;;;;;;5006320;28;20573;-80
2023/08/15 05:41:45;;;;;;;16.53;8.87;;;23.00;83.70;;;;;;5009542;28;20547;-80
2023/08/15 05:44:13;;;;;;;12.20;8.23;;;23.00;83.80;;;;;;5004585;28;20452;-79
2023/08/15 05:46:41;;;;;;;11.33;9.00;;;23.00;84.00;;;;;;5009235;28;21319;-80
2023/08/15 05:49:09;;;;;;;12.17;8.33;;;23.20;84.20;;;;;;5006948;28;20470;-80
2023/08/15 05:51:37;;;;;;;9.57;7.70;;;23.50;86.20;;;;;;5006839;28;20514;-79
2023/08/15 05:54:06;;;;;;;15.60;7.90;;;24.60;86.80;;;;;;5007615;28;20632;-81
2023/08/15 05:56:33;;;;;;;15.43;7.07;;;26.20;84.30;;;;;;5010577;28;20475;-79
2023/08/15 05:59:03;;;;;;;13.40;7.80;;;27.70;81.30;;;;;;5007057;28;20464;-79
2023/08/15 06:01:31;;;;;;;10.27;7.43;;;29.00;78.00;;;;;;5006584;28;20477;-79
2023/08/15 06:04:00;;;;;;;10.30;7.47;;;29.80;74.90;;;;;;5004304;28;20617;-80
2023/08/15 06:06:30;;;;;;;11.07;7.00;;;29.60;72.90;;;;;;5001627;28;20484;-79
2023/08/15 06:08:58;;;;;;;10.30;7.13;;;28.80;72.70;;;;;;5009947;28;20462;-80
2023/08/15 06:11:26;;;;;;;9.70;7.47;;;28.00;73.20;;;;;;5005034;28;20442;-79
2023/08/15 06:13:55;;;;;;;11.77;7.30;;;27.20;74.00;;;;;;5006696;28;20861;-79
2023/08/15 06:16:24;;;;;;;15.10;8.30;;;26.60;74.80;;;;;;5000373;28;20528;-80
2023/08/15 06:18:54;;;;;;;11.63;7.87;;;26.20;75.50;;;;;;5004251;28;20477;-80
2023/08/15 06:21:22;;;;;;;12.10;8.10;;;25.80;76.20;;;;;;5005880;28;20452;-80
2023/08/15 06:23:50;;;;;;;13.10;8.33;;;25.50;76.70;;;;;;5008578;28;20491;-81
2023/08/15 06:26:18;;;;;;;13.80;8.43;;;25.30;77.20;;;;;;5012526;28;20808;-80
2023/08/15 06:28:46;;;;;;;13.60;7.80;;;25.10;77.70;;;;;;5009091;28;20596;-81
2023/08/15 06:31:14;;;;;;;12.93;8.93;;;25.00;78.00;;;;;;5010709;28;20567;-81
2023/08/15 06:33:43;;;;;;;11.87;8.70;;;24.90;78.30;;;;;;5009658;28;20482;-81
2023/08/15 06:36:11;;;;;;;11.00;8.40;;;24.80;78.60;;;;;;5007595;28;20973;-81
2023/08/15 06:38:41;;;;;;;12.13;8.83;;;24.70;78.80;;;;;;5001921;28;20547;-80
2023/08/15 06:41:09;;;;;;;11.60;8.30;;;24.60;79.10;;;;;;5010430;28;20448;-81
2023/08/15 06:43:37;;;;;;;14.37;9.77;;;24.50;79.30;;;;;;5006596;28;20942;-78
2023/08/15 06:46:05;;;;;;;16.63;8.73;;;24.50;79.50;;;;;;5010235;28;20472;-80
2023/08/15 06:48:33;;;;;;;11.77;8.30;;;24.40;79.70;;;;;;5004001;28;20485;-80
2023/08/15 06:51:03;;;;;;;12.93;8.67;;;24.40;80.00;;;;;;5003057;28;20511;-79
2023/08/15 06:53:31;;;;;;;12.40;9.10;;;24.40;80.20;;;;;;5014084;28;20896;-82
2023/08/15 06:55:59;;;;;;;13.83;9.13;;;24.40;80.30;;;;;;5014145;28;20447;-81
2023/08/15 06:58:28;;;;;;;12.03;9.50;;;24.50;80.40;;;;;;5013005;28;21065;-82
2023/08/15 07:00:56;;;;;;;17.50;9.60;;;24.50;80.50;;;;;;5011196;28;20535;-79
2023/08/15 07:03:24;;;;;;;15.50;11.10;;;24.50;80.60;;;;;;5003777;28;20460;-79
2023/08/15 07:05:52;;;;;;;13.00;9.47;;;24.50;80.70;;;;;;5005320;28;20466;-79
2023/08/15 07:08:21;;;;;;;15.70;10.20;;;24.50;80.80;;;;;;5009948;28;20478;-80
2023/08/15 07:10:54;;;;;;;13.70;9.77;;;24.60;80.90;;;;;;5010437;28;21042;-80
2023/08/15 07:13:23;;;;;;;13.17;9.50;;;24.60;81.00;;;;;;5007927;28;21169;-80
2023/08/15 07:15:54;;;;;;;10.87;8.60;;;24.70;81.10;;;;;;5004152;28;20522;-80
2023/08/15 07:18:23;;;;;;;12.53;9.23;;;24.70;81.00;;;;;;5010590;28;20452;-80
2023/08/15 07:20:52;;;;;;;12.30;8.73;;;24.80;81.00;;;;;;5005597;28;20959;-80
2023/08/15 07:23:21;;;;;;;9.53;8.13;;;24.80;81.00;;;;;;5007169;28;20499;-81
2023/08/15 07:25:49;;;;;;;12.77;8.53;;;24.80;81.00;;;;;;5012577;28;20465;-79
2023/08/15 07:28:17;;;;;;;11.40;8.13;;;24.80;81.10;;;;;;5012712;28;20869;-80
2023/08/15 07:30:48;;;;;;;11.03;7.70;;;24.80;81.10;;;;;;5010210;28;21067;-80
2023/08/15 07:33:17;;;;;;;10.63;7.73;;;24.90;81.10;;;;;;5005528;28;20468;-79
2023/08/15 07:35:45;;;;;;;12.40;7.77;;;24.90;81.10;;;;;;4998438;28;21228;-81
2023/08/15 07:38:14;;;;;;;13.17;7.80;;;24.90;81.20;;;;;;5020459;28;20539;-81
2023/08/15 07:40:43;;;;;;;10.93;7.30;;;25.00;81.10;;;;;;5009904;28;20814;-81
2023/08/15 07:43:11;;;;;;;10.70;5.60;;;25.10;81.10;;;;;;5011968;28;20463;-81
2023/08/15 07:45:39;;;;;;;9.17;6.20;;;25.10;81.00;;;;;;5014668;28;20578;-79
2023/08/15 07:48:08;;;;;;;10.90;6.57;;;25.20;80.80;;;;;;5009007;28;20571;-81
2023/08/15 07:50:36;;;;;;;10.70;6.10;;;25.20;80.80;;;;;;5006392;28;20452;-79
2023/08/15 07:53:06;;;;;;;8.60;5.30;;;25.30;80.60;;;;;;5006612;28;20468;-80
2023/08/15 07:55:34;;;;;;;10.17;5.40;;;25.40;80.40;;;;;;5004344;28;20559;-81
2023/08/15 07:58:03;;;;;;;8.50;4.60;;;25.50;80.10;;;;;;5002631;28;20959;-79
2023/08/15 08:00:32;;;;;;;6.67;4.40;;;25.50;79.70;;;;;;5008446;28;20483;-81
2023/08/15 08:03:02;;;;;;;6.87;4.07;;;25.60;79.40;;;;;;5008514;28;20511;-81
2023/08/15 08:05:32;;;;;;;9.73;4.83;;;25.70;79.10;;;;;;5008615;28;20448;-80
2023/08/15 08:08:01;;;;;;;10.20;4.70;;;25.70;78.60;;;;;;5010959;28;20476;-81
2023/08/15 08:10:29;;;;;;;9.27;6.07;;;25.80;78.40;;;;;;5005094;28;20957;-82
2023/08/15 08:12:59;;;;;;;8.63;5.40;;;25.80;78.20;;;;;;5007601;28;20546;-80
2023/08/15 08:15:29;;;;;;;8.33;5.13;;;25.80;78.10;;;;;;5009804;28;20540;-80
2023/08/15 08:17:57;;;;;;;9.40;5.30;;;25.90;77.90;;;;;;5003763;28;20442;-81
2023/08/15 08:20:26;;;;;;;8.10;4.80;;;26.00;77.70;;;;;;5024281;28;20516;-80
2023/08/15 08:22:54;;;;;;;8.20;4.53;;;26.00;77.50;;;;;;5012094;28;20467;-79
2023/08/15 08:25:24;;;;;;;11.07;5.00;;;26.00;77.20;;;;;;5013503;28;20456;-80
2023/08/15 08:27:52;;;;;;;8.23;4.63;;;26.10;77.00;;;;;;5011305;28;20481;-81
2023/08/15 08:30:22;;;;;;;13.07;4.70;;;26.10;76.80;;;;;;5013186;28;20951;-81
2023/08/15 08:32:52;;;;;;;8.37;4.70;;;26.20;76.70;;;;;;5008335;28;20456;-80
2023/08/15 08:35:20;;;;;;;8.30;5.17;;;26.30;76.50;;;;;;5008513;28;20510;-81
2023/08/15 08:37:48;;;;;;;8.37;5.40;;;26.40;76.50;;;;;;5009649;28;20452;-80
2023/08/15 08:40:17;;;;;;;11.87;5.57;;;26.40;76.40;;;;;;5009689;28;20499;-80
2023/08/15 08:42:46;;;;;;;8.77;5.33;;;26.50;76.40;;;;;;5012798;28;20555;-81
2023/08/15 08:45:15;;;;;;;8.97;5.70;;;26.50;76.30;;;;;;5034975;28;20535;-81
2023/08/15 08:47:46;;;;;;;8.33;5.30;;;26.60;76.20;;;;;;5012031;28;20472;-80
2023/08/15 08:50:17;;;;;;;7.20;5.20;;;26.60;76.00;;;;;;5010829;28;20458;-81
2023/08/15 08:52:49;;;;;;;9.10;5.07;;;26.70;75.80;;;;;;5004985;28;20464;-81
2023/08/15 08:55:18;;;;;;;9.30;5.20;;;26.70;75.60;;;;;;5005647;28;20715;-80
2023/08/15 08:57:50;;;;;;;8.03;5.50;;;26.70;75.60;;;;;;5012041;28;20467;-80
2023/08/15 09:00:22;;;;;;;7.93;5.37;;;26.80;75.50;;;;;;5009411;28;20467;-80
2023/08/15 09:02:52;;;;;;;10.43;5.80;;;26.80;75.50;;;;;;5025893;28;20574;-81
2023/08/15 09:05:22;;;;;;;8.27;5.80;;;26.80;75.40;;;;;;5029411;28;20949;-79
2023/08/15 09:07:50;;;;;;;8.90;6.27;;;26.80;75.20;;;;;;5027800;28;20471;-80
2023/08/15 09:10:19;;;;;;;10.83;5.40;;;26.90;75.20;;;;;;5031843;28;20463;-79
2023/08/15 09:12:47;;;;;;;13.17;6.00;;;26.90;75.20;;;;;;5024453;28;20926;-80
2023/08/15 09:15:16;;;;;;;8.03;5.90;;;27.00;75.10;;;;;;5030891;28;20649;-80
2023/08/15 09:17:44;;;;;;;9.00;5.77;;;27.00;75.00;;;;;;5030007;28;20546;-79
2023/08/15 09:20:14;;;;;;;9.13;6.27;;;27.00;74.80;;;;;;5030983;28;20988;-80
2023/08/15 09:22:45;;;;;;;11.63;4.97;;;27.10;74.60;;;;;;5028943;28;20444;-79
2023/08/15 09:25:14;;;;;;;9.03;5.30;;;27.10;74.50;;;;;;5027966;28;20547;-81
2023/08/15 09:27:44;;;;;;;9.67;5.60;;;27.10;74.40;;;;;;5029451;28;20854;-81
2023/08/15 09:30:14;;;;;;;11.77;6.00;;;27.10;74.30;;;;;;5027940;28;20448;-80
2023/08/15 09:32:43;;;;;;;9.20;5.43;;;27.00;74.20;;;;;;5028874;28;20464;-80
2023/08/15 09:35:13;;;;;;;10.47;5.30;;;27.00;74.20;;;;;;5027690;28;20474;-79
2023/08/15 09:37:44;;;;;;;10.80;6.30;;;27.00;74.10;;;;;;5028318;28;20558;-79
2023/08/15 09:40:15;;;;;;;10.13;5.13;;;27.00;74.10;;;;;;5026001;28;20534;-81
2023/08/15 09:42:44;;;;;;;8.40;5.40;;;27.10;74.10;;;;;;5028489;28;21066;-80
2023/08/15 09:45:13;;;;;;;9.17;6.20;;;27.10;74.10;;;;;;5026062;28;20451;-80
2023/08/15 09:47:42;;;;;;;10.60;6.20;;;27.10;74.00;;;;;;5026498;28;20471;-80
2023/08/15 09:50:12;;;;;;;11.73;7.23;;;27.20;74.10;;;;;;5031970;28;20482;-80
2023/08/15 09:52:41;;;;;;;8.80;6.83;;;27.20;74.30;;;;;;5026608;28;20452;-81
2023/08/15 09:55:12;;;;;;;11.43;6.20;;;27.20;74.50;;;;;;5025043;28;20532;-80
2023/08/15 09:57:42;;;;;;;9.63;6.67;;;27.20;74.80;;;;;;5028115;28;20494;-80
2023/08/15 10:00:12;;;;;;;9.53;6.30;;;27.30;74.90;;;;;;5029931;28;20452;-80
2023/08/15 10:02:47;;;;;;;13.67;6.97;;;27.30;74.90;;;;;;5024783;28;20574;-79
2023/08/15 10:05:20;;;;;;;11.10;7.17;;;27.30;75.00;;;;;;5023503;28;20539;-79
2023/08/15 10:07:49;;;;;;;10.33;6.83;;;27.30;75.10;;;;;;5056085;28;21008;-80
2023/08/15 10:10:19;;;;;;;7.90;6.00;;;27.40;75.20;;;;;;5054986;28;20459;-80
2023/08/15 10:12:50;;;;;;;10.63;7.43;;;27.40;75.20;;;;;;5028457;28;20558;-80
2023/08/15 10:15:27;;;;;;;10.20;7.30;;;27.40;75.30;;;;;;5026517;28;20455;-80
2023/08/15 10:17:55;;;;;;;9.73;6.63;;;27.40;75.40;;;;;;5028023;28;20477;-81
2023/08/15 10:20:23;;;;;;;11.47;6.10;;;27.40;75.50;;;;;;5057229;28;20451;-80
2023/08/15 10:22:54;;;;;;;8.17;6.00;;;27.30;75.60;;;;;;5021904;28;20459;-80
2023/08/15 10:25:35;;;;;;;9.80;7.07;;;27.30;75.70;;;;;;5019133;28;20506;-80
2023/08/15 10:28:10;;;;;;;13.30;7.60;;;27.40;75.70;;;;;;5055321;28;20477;-81
2023/08/15 10:31:00;;;;;;;10.23;6.60;;;27.40;75.70;;;;;;5023210;28;20581;-81
2023/08/15 10:33:31;;;;;;;9.20;7.03;;;27.30;75.70;;;;;;5024242;28;20551;-81
2023/08/15 10:36:08;;;;;;;13.20;6.83;;;27.30;75.80;;;;;;5028664;28;20451;-81
2023/08/15 10:38:40;;;;;;;10.10;6.50;;;27.30;75.90;;;;;;5028578;28;20443;-81
2023/08/15 10:41:15;;;;;;;10.73;6.97;;;27.40;76.10;;;;;;5055445;28;20513;-80
2023/08/15 10:43:48;;;;;;;12.80;6.60;;;27.40;76.10;;;;;;5026716;28;20545;-79
2023/08/15 10:46:17;;;;;;;9.73;6.87;;;27.40;76.20;;;;;;5025420;28;20534;-79
2023/08/15 10:48:49;;;;;;;9.73;6.70;;;27.40;76.30;;;;;;5029829;28;20472;-80
2023/08/15 10:51:23;;;;;;;10.20;7.30;;;27.40;76.30;;;;;;5028234;28;20454;-79
2023/08/15 10:53:52;;;;;;;11.10;7.20;;;27.40;76.30;;;;;;5053094;28;20479;-79
2023/08/15 10:56:24;;;;;;;11.87;6.60;;;27.40;76.30;;;;;;5026401;28;20454;-79
2023/08/15 10:58:52;;;;;;;9.07;6.47;;;27.40;76.20;;;;;;5025327;28;20440;-80
2023/08/15 11:01:21;;;;;;;9.60;6.33;;;27.40;76.20;;;;;;5024587;28;20479;-79
2023/08/15 11:03:51;;;;;;;9.13;6.53;;;27.40;76.20;;;;;;5028363;28;20487;-81
2023/08/15 11:06:20;;;;;;;11.00;7.00;;;27.40;76.20;;;;;;5027662;28;20889;-80
2023/08/15 11:08:50;;;;;;;10.10;7.00;;;27.40;76.10;;;;;;5030232;28;20544;-79
2023/08/15 11:11:18;;;;;;;14.87;7.20;;;27.40;76.10;;;;;;5025188;28;20449;-81
2023/08/15 11:13:48;;;;;;;11.17;7.50;;;27.40;76.10;;;;;;5024729;28;20506;-79
2023/08/15 11:16:18;;;;;;;13.63;6.90;;;27.30;76.10;;;;;;5026618;28;21310;-81
2023/08/15 11:18:46;;;;;;;11.93;7.80;;;27.30;76.40;;;;;;5027669;28;20551;-79
2023/08/15 11:21:17;;;;;;;9.70;7.13;;;27.30;76.60;;;;;;5052527;28;20463;-81
2023/08/15 11:23:46;;;;;;;12.70;7.53;;;27.30;76.90;;;;;;5028398;28;20456;-81
2023/08/15 11:26:18;;;;;;;14.47;7.73;;;27.30;77.10;;;;;;5030575;28;20458;-80
2023/08/15 11:28:47;;;;;;;11.67;8.13;;;27.30;77.40;;;;;;5028364;28;20487;-79
2023/08/15 11:31:17;;;;;;;11.90;7.90;;;27.30;77.70;;;;;;5022624;28;20479;-79
2023/08/15 11:33:51;;;;;;;8.97;7.30;;;27.30;77.80;;;;;;5021518;28;20455;-80
2023/08/15 11:36:20;;;;;;;12.20;6.90;;;27.40;78.00;;;;;;5023746;28;21160;-80
2023/08/15 11:38:48;;;;;;;11.53;7.20;;;27.40;78.20;;;;;;5026500;28;20451;-80
2023/08/15 11:41:17;;;;;;;12.70;7.50;;;27.50;78.20;;;;;;5027252;28;20487;-80
2023/08/15 11:43:45;;;;;;;9.60;6.90;;;27.60;78.50;;;;;;5026885;28;20452;-79
2023/08/15 11:46:15;;;;;;;10.10;6.90;;;27.70;78.50;;;;;;5027227;28;20458;-80
2023/08/15 11:48:45;;;;;;;10.83;7.63;;;27.70;78.30;;;;;;5057216;28;20483;-80
2023/08/15 11:51:20;;;;;;;12.40;7.13;;;27.80;78.10;;;;;;5028270;28;20817;-82
2023/08/15 11:53:52;;;;;;;12.57;7.47;;;27.90;78.00;;;;;;5033281;28;20477;-80
2023/08/15 11:56:20;;;;;;;11.60;7.10;;;27.90;78.00;;;;;;5026379;28;20538;-81
2023/08/15 11:58:48;;;;;;;10.27;6.33;;;27.90;77.70;;;;;;5024968;28;20501;-79
2023/08/15 12:01:18;;;;;;;12.40;7.13;;;27.90;77.70;;;;;;5025879;28;20547;-80
2023/08/15 12:03:46;;;;;;;10.37;6.73;;;27.90;77.60;;;;;;5028683;28;20587;-81
2023/08/15 12:06:15;;;;;;;9.70;6.50;;;28.00;77.50;;;;;;5025766;28;20542;-77
2023/08/15 12:08:44;;;;;;;11.20;6.67;;;28.00;77.30;;;;;;5026292;28;20473;-83
2023/08/15 12:18:59;;;;;;;10.77;6.30;;;28.20;76.40;;;;;;5033004;28;20462;-81
2023/08/15 12:21:27;;;;;;;10.77;6.50;;;28.30;76.30;;;;;;5033035;28;20866;-81
2023/08/15 12:23:56;;;;;;;10.00;6.40;;;28.40;76.10;;;;;;5030794;28;20550;-80
2023/08/15 12:26:25;;;;;;;9.37;5.90;;;28.50;75.90;;;;;;5028911;28;20474;-80
2023/08/15 12:28:53;;;;;;;10.63;5.50;;;28.50;75.40;;;;;;5027418;28;20485;-80
2023/08/15 12:31:21;;;;;;;12.93;5.30;;;28.60;74.60;;;;;;5034110;28;21097;-80
2023/08/15 12:33:49;;;;;;;10.23;5.43;;;28.60;74.10;;;;;;5031934;28;20455;-81
2023/08/15 12:36:19;;;;;;;12.07;5.47;;;28.70;73.50;;;;;;5030374;28;20477;-80
2023/08/15 12:38:47;;;;;;;8.03;4.50;;;28.70;72.70;;;;;;5030150;28;20482;-80
2023/08/15 12:41:35;;;;;;;9.00;5.20;;;28.80;72.40;;;;;;5026296;28;20448;-79
2023/08/15 12:44:04;;;;;;;9.10;5.30;;;28.90;71.70;;;;;;5017677;28;20478;-80
2023/08/15 12:46:32;;;;;;;10.00;5.03;;;28.90;71.40;;;;;;5024747;28;21140;-80
2023/08/15 12:49:02;;;;;;;8.10;4.63;;;29.00;70.70;;;;;;5024337;28;20663;-79
2023/08/15 12:51:32;;;;;;;8.93;5.20;;;29.00;70.30;;;;;;5025930;28;20456;-80
2023/08/15 13:02:02;;;;;;;10.00;4.93;;;29.10;69.20;;;;;;5026312;28;20456;-81
2023/08/15 13:04:30;;;;;;;10.53;4.77;;;29.10;68.70;;;;;;5025453;28;20451;-80